createdAt,value
2023-03-06T00:01:48.951Z,2.50
2023-03-06T00:04:51.575Z,4.40
2023-03-06T00:07:54.128Z,4.53
2023-03-06T00:10:57.580Z,3.05
2023-03-06T00:14:00.281Z,2.30
2023-03-06T00:17:02.980Z,3.30
2023-03-06T00:20:06.707Z,2.47
2023-03-06T00:23:10.058Z,3.13
2023-03-06T00:26:12.910Z,4.07
2023-03-06T00:29:17.763Z,3.28
2023-03-06T00:32:20.847Z,4.27
2023-03-06T00:35:23.604Z,8.07
2023-03-06T00:38:28.635Z,9.82
2023-03-06T00:41:32.167Z,4.80
2023-03-06T00:44:36.111Z,3.85
2023-03-06T00:47:39.155Z,3.17
2023-03-06T00:50:41.908Z,5.88
2023-03-06T00:53:44.531Z,3.47
2023-03-06T00:56:47.139Z,4.90
2023-03-06T00:59:50.352Z,3.65
2023-03-06T01:02:53.776Z,4.90
2023-03-06T01:05:58.105Z,3.40
2023-03-06T01:09:06.478Z,3.25
2023-03-06T01:12:09.419Z,5.32
2023-03-06T01:15:13.260Z,5.40
2023-03-06T01:18:16.008Z,4.72
2023-03-06T01:21:19.105Z,6.70
2023-03-06T01:24:24.028Z,3.97
2023-03-06T01:27:26.679Z,4.93
2023-03-06T01:30:29.317Z,6.63
2023-03-06T01:33:31.941Z,4.50
2023-03-06T01:36:34.537Z,9.52
2023-03-06T01:39:38.546Z,7.00
2023-03-06T01:42:42.190Z,6.30
2023-03-06T01:45:50.658Z,7.25
2023-03-06T01:48:56.787Z,13.80
2023-03-06T01:52:21.450Z,17.08
2023-03-06T01:55:31.067Z,22.73
2023-03-06T01:58:34.401Z,9.45
2023-03-06T02:01:39.973Z,5.97
2023-03-06T02:04:44.252Z,7.47
2023-03-06T02:07:48.077Z,6.55
2023-03-06T02:11:08.881Z,6.57
2023-03-06T02:14:14.522Z,4.97
2023-03-06T02:17:20.531Z,6.18
2023-03-06T02:20:31.862Z,5.68
2023-03-06T02:23:49.259Z,5.85
2023-03-06T02:26:53.290Z,4.73
2023-03-06T02:29:56.052Z,6.18
2023-03-06T02:32:58.878Z,7.45
2023-03-06T02:36:06.920Z,6.63
2023-03-06T02:39:10.623Z,6.35
2023-03-06T02:42:19.609Z,8.63
2023-03-06T02:45:45.392Z,7.13
2023-03-06T02:48:48.163Z,7.10
2023-03-06T02:51:50.778Z,5.63
2023-03-06T02:54:53.324Z,5.40
2023-03-06T02:57:56.147Z,7.23
2023-03-06T03:00:59.659Z,6.13
2023-03-06T03:04:02.243Z,7.55
2023-03-06T03:07:05.565Z,6.87
2023-03-06T03:10:08.949Z,9.43
2023-03-06T03:13:11.538Z,9.23
2023-03-06T03:16:15.606Z,8.93
2023-03-06T03:19:18.721Z,6.00
2023-03-06T03:22:22.077Z,5.68
2023-03-06T03:25:26.484Z,6.82
2023-03-06T03:28:31.688Z,9.03
2023-03-06T03:31:34.771Z,9.40
2023-03-06T03:34:38.526Z,10.30
2023-03-06T03:37:41.873Z,8.03
2023-03-06T03:40:45.095Z,8.43
2023-03-06T03:43:48.639Z,9.70
2023-03-06T03:46:51.783Z,9.00
2023-03-06T03:49:57.777Z,11.90
2023-03-06T03:53:00.930Z,9.07
2023-03-06T03:56:04.458Z,10.98
2023-03-06T03:59:09.719Z,10.77
2023-03-06T04:02:21.904Z,11.25
2023-03-06T04:05:36.189Z,7.63
2023-03-06T04:08:41.791Z,8.53
2023-03-06T04:11:44.362Z,8.30
2023-03-06T04:14:47.563Z,8.35
2023-03-06T04:17:50.266Z,10.63
2023-03-06T04:20:56.447Z,8.05
2023-03-06T04:23:59.111Z,7.57
2023-03-06T04:27:01.741Z,8.20
2023-03-06T04:30:06.326Z,7.67
2023-03-06T04:33:10.842Z,7.80
2023-03-06T04:36:30.322Z,8.75
2023-03-06T04:39:36.904Z,8.77
2023-03-06T04:42:39.463Z,7.35
2023-03-06T04:45:42.073Z,7.88
2023-03-06T04:48:44.747Z,9.15
2023-03-06T04:51:47.338Z,11.75
2023-03-06T04:54:49.906Z,6.47
2023-03-06T04:57:52.674Z,14.30
2023-03-06T05:00:55.354Z,14.13
2023-03-06T05:03:57.914Z,14.35
2023-03-06T05:07:00.495Z,15.57
2023-03-06T05:10:03.413Z,13.57
2023-03-06T05:13:06.066Z,15.00
2023-03-06T05:16:09.320Z,14.60
2023-03-06T05:19:12.107Z,15.25
2023-03-06T05:22:14.966Z,14.52
2023-03-06T05:25:17.599Z,15.15
2023-03-06T05:28:20.375Z,16.25
2023-03-06T05:31:23.145Z,10.67
2023-03-06T05:34:25.770Z,11.13
2023-03-06T05:37:28.446Z,10.48
2023-03-06T05:40:31.361Z,10.07
2023-03-06T05:43:33.945Z,9.00
2023-03-06T05:46:37.831Z,9.23
2023-03-06T05:49:41.139Z,10.38
2023-03-06T05:52:43.868Z,14.52
2023-03-06T05:55:46.503Z,22.52
2023-03-06T05:58:49.229Z,32.30
2023-03-06T06:01:51.835Z,26.13
2023-03-06T06:04:54.475Z,21.52
2023-03-06T06:07:57.081Z,19.50
2023-03-06T06:11:00.100Z,20.97
2023-03-06T06:14:02.735Z,20.83
2023-03-06T06:17:05.508Z,30.88
2023-03-06T06:20:08.993Z,22.70
2023-03-06T06:23:11.808Z,14.65
2023-03-06T06:26:14.438Z,15.73
2023-03-06T06:29:17.256Z,32.10
2023-03-06T06:32:20.112Z,28.03
2023-03-06T06:35:23.066Z,21.42
2023-03-06T06:38:26.247Z,19.80
2023-03-06T06:41:53.457Z,23.17
2023-03-06T06:44:53.023Z,26.70
2023-03-06T06:47:55.696Z,21.15
2023-03-06T06:50:59.208Z,18.05
2023-03-06T06:54:04.299Z,18.98
2023-03-06T06:57:06.888Z,24.38
2023-03-06T07:00:13.457Z,30.42
2023-03-06T07:03:16.275Z,28.83
2023-03-06T07:06:19.038Z,32.38
2023-03-06T07:09:22.446Z,32.88
2023-03-06T07:12:25.043Z,32.87
2023-03-06T07:15:29.942Z,34.88
2023-03-06T07:18:32.812Z,41.05
2023-03-06T07:21:36.242Z,35.58
2023-03-06T07:24:38.822Z,27.40
2023-03-06T07:27:41.494Z,30.60
2023-03-06T07:30:44.588Z,22.10
2023-03-06T07:33:47.149Z,28.70
2023-03-06T07:36:50.972Z,29.85
2023-03-06T07:39:53.507Z,27.08
2023-03-06T07:43:09.106Z,24.27
2023-03-06T07:46:19.525Z,19.90
2023-03-06T07:49:25.097Z,18.13
2023-03-06T07:52:29.893Z,16.63
2023-03-06T07:55:32.500Z,13.18
2023-03-06T07:58:36.598Z,20.25
2023-03-06T08:01:40.377Z,18.95
2023-03-06T08:05:48.430Z,15.77
2023-03-06T08:08:54.103Z,9.57
2023-03-06T08:11:57.317Z,15.40
2023-03-06T08:15:03.555Z,8.87
2023-03-06T08:18:06.264Z,7.10
2023-03-06T08:21:11.839Z,15.65
2023-03-06T08:24:16.717Z,7.50
2023-03-06T08:27:19.362Z,5.18
2023-03-06T08:30:22.032Z,6.88
2023-03-06T08:33:25.111Z,5.72
2023-03-06T08:36:28.120Z,3.83
2023-03-06T08:39:32.872Z,6.82
2023-03-06T08:42:44.941Z,5.32
2023-03-06T08:45:55.642Z,5.73
2023-03-06T08:48:58.974Z,4.70
2023-03-06T08:52:01.578Z,3.38
2023-03-06T08:55:05.314Z,3.65
2023-03-06T08:58:08.686Z,9.77
2023-03-06T09:01:16.672Z,5.18
2023-03-06T09:04:19.319Z,7.22
2023-03-06T09:07:21.983Z,12.83
2023-03-06T09:10:26.322Z,6.90
2023-03-06T09:13:29.055Z,3.78
2023-03-06T09:16:32.478Z,7.33
2023-03-06T09:19:35.183Z,4.68
2023-03-06T09:22:38.099Z,3.92
2023-03-06T09:25:40.682Z,10.93
2023-03-06T09:28:43.332Z,8.30
2023-03-06T09:31:46.086Z,5.68
2023-03-06T09:34:50.322Z,7.00
2023-03-06T09:37:52.853Z,5.83
2023-03-06T09:40:58.353Z,17.02
2023-03-06T09:44:14.699Z,5.00
2023-03-06T09:47:52.665Z,11.10
2023-03-06T09:51:08.463Z,12.27
2023-03-06T09:54:16.040Z,10.57
2023-03-06T09:57:28.359Z,5.18
2023-03-06T10:00:51.413Z,4.95
2023-03-06T10:04:12.026Z,7.68
2023-03-06T10:07:51.964Z,13.20
2023-03-06T10:11:01.970Z,3.57
2023-03-06T10:14:16.440Z,3.45
2023-03-06T10:17:24.067Z,5.40
2023-03-06T10:20:33.858Z,5.20
2023-03-06T10:23:51.854Z,5.63
2023-03-06T10:27:21.628Z,6.10
2023-03-06T10:30:59.645Z,6.18
2023-03-06T10:34:22.896Z,3.75
2023-03-06T10:37:26.279Z,8.65
2023-03-06T10:40:40.500Z,4.65
2023-03-06T10:43:44.602Z,5.07
2023-03-06T10:46:50.037Z,5.57
2023-03-06T10:50:01.725Z,7.78
2023-03-06T10:53:19.244Z,8.53
2023-03-06T10:56:29.373Z,11.85
2023-03-06T10:59:32.213Z,6.15
2023-03-06T11:02:38.696Z,6.50
2023-03-06T11:05:58.253Z,7.45
2023-03-06T11:09:18.822Z,6.40
2023-03-06T11:12:33.342Z,6.85
2023-03-06T11:15:36.237Z,6.47
2023-03-06T11:18:41.152Z,7.25
2023-03-06T11:21:58.515Z,7.60
2023-03-06T11:25:01.629Z,6.53
2023-03-06T11:28:34.864Z,7.18
2023-03-06T11:32:07.556Z,10.25
2023-03-06T11:35:14.135Z,8.38
2023-03-06T11:38:30.942Z,9.18
2023-03-06T11:41:48.055Z,8.60
2023-03-06T11:44:55.496Z,7.25
2023-03-06T11:48:11.873Z,7.03
2023-03-06T11:51:19.908Z,13.75
2023-03-06T11:54:23.282Z,8.80
2023-03-06T11:57:35.288Z,7.20
2023-03-06T12:01:15.967Z,7.90
2023-03-06T12:04:24.189Z,8.27
2023-03-06T12:07:35.873Z,8.15
2023-03-06T12:10:51.869Z,5.13
2023-03-06T12:14:12.444Z,5.93
2023-03-06T12:17:26.885Z,5.10
2023-03-06T12:20:33.077Z,6.13
2023-03-06T12:24:00.663Z,6.35
2023-03-06T12:27:19.993Z,7.20
2023-03-06T12:30:31.371Z,5.43
2023-03-06T12:33:58.660Z,5.90
2023-03-06T12:37:04.086Z,5.05
2023-03-06T12:40:30.758Z,3.55
2023-03-06T12:43:45.344Z,5.10
2023-03-06T12:46:54.916Z,9.45
2023-03-06T12:50:05.320Z,4.60
2023-03-06T12:53:14.530Z,6.27
2023-03-06T12:56:19.032Z,7.88
2023-03-06T12:59:42.825Z,5.70
2023-03-06T13:03:12.432Z,6.60
2023-03-06T13:06:32.462Z,5.50
2023-03-06T13:09:58.058Z,4.10
2023-03-06T13:13:05.133Z,3.30
2023-03-06T13:16:12.524Z,4.33
2023-03-06T13:19:25.298Z,4.35
2023-03-06T13:22:30.124Z,3.58
2023-03-06T13:25:45.791Z,6.35
2023-03-06T13:28:51.071Z,4.22
2023-03-06T13:31:53.734Z,4.00
2023-03-06T13:34:56.447Z,7.60
2023-03-06T13:38:00.287Z,6.13
2023-03-06T13:41:21.131Z,3.58
2023-03-06T13:44:23.682Z,6.80
2023-03-06T13:48:02.789Z,5.17
2023-03-06T13:51:24.729Z,6.15
2023-03-06T13:54:27.285Z,7.03
2023-03-06T13:57:38.678Z,7.53
2023-03-06T14:00:56.071Z,5.85
2023-03-06T14:04:15.395Z,7.90
2023-03-06T14:07:20.690Z,8.52
2023-03-06T14:10:25.426Z,4.90
2023-03-06T14:13:46.703Z,7.53
2023-03-06T14:16:51.090Z,6.22
2023-03-06T14:19:54.917Z,7.50
2023-03-06T14:23:26.894Z,14.07
2023-03-06T14:26:44.165Z,9.98
2023-03-06T14:29:48.808Z,10.73
2023-03-06T14:32:53.998Z,10.68
2023-03-06T14:36:01.184Z,8.10
2023-03-06T14:39:22.883Z,9.98
2023-03-06T14:42:29.687Z,8.33
2023-03-06T14:45:32.358Z,9.07
2023-03-06T14:48:41.373Z,9.48
2023-03-06T14:51:46.834Z,7.73
2023-03-06T14:54:49.977Z,9.48
2023-03-06T14:58:04.619Z,14.45
2023-03-06T15:01:09.893Z,8.68
2023-03-06T15:04:26.432Z,13.15
2023-03-06T15:07:32.611Z,18.33
2023-03-06T15:10:36.798Z,12.32
2023-03-06T15:13:39.704Z,8.20
2023-03-06T15:16:42.425Z,11.20
2023-03-06T15:19:47.410Z,21.58
2023-03-06T15:22:50.984Z,10.53
2023-03-06T15:26:03.618Z,11.90
2023-03-06T15:29:10.062Z,7.90
2023-03-06T15:32:34.737Z,11.30
2023-03-06T15:35:38.406Z,9.98
2023-03-06T15:38:44.203Z,11.07
2023-03-06T15:41:46.872Z,17.25
2023-03-06T15:45:03.372Z,16.53
2023-03-06T15:48:16.936Z,19.63
2023-03-06T15:51:19.818Z,15.27
2023-03-06T15:54:22.447Z,17.63
2023-03-06T15:57:29.158Z,17.58
2023-03-06T16:00:38.517Z,17.40
2023-03-06T16:03:41.155Z,14.63
2023-03-06T16:06:47.257Z,17.85
2023-03-06T16:09:49.871Z,23.65
2023-03-06T16:12:59.820Z,23.48
2023-03-06T16:16:02.492Z,23.27
2023-03-06T16:19:23.859Z,33.35
2023-03-06T16:22:28.410Z,35.47
2023-03-06T16:25:31.191Z,46.63
2023-03-06T16:28:33.789Z,41.83
2023-03-06T16:31:37.043Z,33.00
2023-03-06T16:34:39.622Z,21.35
2023-03-06T16:37:42.540Z,18.55
2023-03-06T16:40:45.383Z,17.80
2023-03-06T16:43:48.496Z,14.13
2023-03-06T16:46:51.336Z,14.93
2023-03-06T16:49:58.097Z,18.10
2023-03-06T16:53:00.913Z,21.73
2023-03-06T16:56:03.603Z,16.53
2023-03-06T16:59:06.163Z,15.52
2023-03-06T17:02:10.967Z,22.42
2023-03-06T17:05:13.879Z,22.63
2023-03-06T17:08:16.537Z,16.75
2023-03-06T17:11:20.506Z,27.80
2023-03-06T17:14:23.172Z,21.90
2023-03-06T17:17:25.947Z,20.53
2023-03-06T17:20:28.532Z,20.38
2023-03-06T17:23:31.075Z,35.95
2023-03-06T17:26:34.027Z,33.67
2023-03-06T17:29:37.143Z,21.90
2023-03-06T17:32:42.889Z,15.70
2023-03-06T17:35:45.618Z,16.40
2023-03-06T17:38:48.629Z,14.05
2023-03-06T17:41:51.450Z,16.67
2023-03-06T17:44:54.322Z,13.75
2023-03-06T17:47:57.224Z,14.07
2023-03-06T17:51:00.650Z,15.82
2023-03-06T17:54:03.561Z,15.45
2023-03-06T17:57:06.353Z,16.03
2023-03-06T18:00:10.865Z,16.98
2023-03-06T18:03:19.010Z,16.00
2023-03-06T18:06:22.553Z,21.13
2023-03-06T18:09:25.537Z,15.18
2023-03-06T18:12:29.485Z,21.70
2023-03-06T18:15:32.173Z,20.40
2023-03-06T18:18:35.269Z,54.20
2023-03-06T18:21:39.981Z,53.63
2023-03-06T18:24:43.903Z,103.95
2023-03-06T18:27:46.849Z,62.50
2023-03-06T18:30:50.010Z,47.67
2023-03-06T18:33:55.188Z,34.08
2023-03-06T18:36:58.118Z,19.45
2023-03-06T18:40:01.028Z,13.65
2023-03-06T18:43:03.746Z,15.55
2023-03-06T18:46:06.997Z,18.13
2023-03-06T18:49:11.850Z,17.03
2023-03-06T18:52:15.017Z,21.25
2023-03-06T18:55:17.891Z,20.45
2023-03-06T18:58:21.855Z,16.87
2023-03-06T19:01:25.521Z,16.27
2023-03-06T19:04:28.597Z,21.63
2023-03-06T19:07:31.491Z,26.88
2023-03-06T19:10:36.374Z,16.42
2023-03-06T19:13:39.341Z,19.05
2023-03-06T19:16:42.692Z,16.48
2023-03-06T19:19:45.510Z,16.23
2023-03-06T19:22:48.225Z,16.20
2023-03-06T19:25:59.130Z,16.17
2023-03-06T19:29:02.160Z,20.63
2023-03-06T19:32:05.317Z,18.38
2023-03-06T19:35:12.650Z,17.75
2023-03-06T19:38:15.672Z,16.02
2023-03-06T19:41:18.403Z,20.00
2023-03-06T19:44:21.348Z,15.38
2023-03-06T19:47:24.264Z,15.45
2023-03-06T19:50:30.702Z,15.23
2023-03-06T19:53:35.315Z,12.25
2023-03-06T19:56:38.170Z,15.80
2023-03-06T19:59:41.930Z,15.87
2023-03-06T20:02:44.824Z,15.48
2023-03-06T20:05:47.980Z,14.73
2023-03-06T20:08:51.377Z,14.55
2023-03-06T20:11:54.774Z,13.50
2023-03-06T20:14:57.392Z,15.80
2023-03-06T20:18:00.243Z,13.98
2023-03-06T20:21:04.541Z,11.87
2023-03-06T20:24:09.997Z,14.52
2023-03-06T20:27:13.289Z,14.07
2023-03-06T20:30:17.200Z,19.50
2023-03-06T20:33:22.288Z,17.60
2023-03-06T20:36:28.963Z,15.73
2023-03-06T20:39:32.270Z,18.10
2023-03-06T20:42:35.251Z,20.73
2023-03-06T20:45:38.154Z,17.63
2023-03-06T20:48:42.076Z,17.25
2023-03-06T20:51:45.856Z,18.30
2023-03-06T20:54:48.983Z,15.50
2023-03-06T20:57:52.606Z,16.35
2023-03-06T21:00:55.545Z,18.67
2023-03-06T21:03:58.766Z,23.20
2023-03-06T21:07:01.366Z,23.00
2023-03-06T21:10:04.647Z,18.00
2023-03-06T21:13:07.537Z,17.88
2023-03-06T21:16:13.716Z,18.13
2023-03-06T21:19:17.178Z,14.38
2023-03-06T21:22:20.379Z,18.40
2023-03-06T21:25:23.266Z,16.88
2023-03-06T21:28:25.872Z,16.25
2023-03-06T21:31:29.638Z,16.87
2023-03-06T21:34:32.314Z,18.25
2023-03-06T21:37:34.948Z,16.70
2023-03-06T21:40:38.085Z,15.82
2023-03-06T21:43:41.244Z,17.75
2023-03-06T21:46:43.874Z,20.27
2023-03-06T21:49:49.001Z,19.50
2023-03-06T21:52:52.294Z,26.83
2023-03-06T21:55:54.909Z,22.40
2023-03-06T21:58:58.359Z,15.63
2023-03-06T22:02:01.024Z,15.40
2023-03-06T22:05:04.656Z,14.20
2023-03-06T22:08:07.379Z,15.95
2023-03-06T22:11:13.334Z,14.45
2023-03-06T22:14:15.964Z,16.63
2023-03-06T22:17:18.480Z,18.55
2023-03-06T22:20:21.103Z,16.90
2023-03-06T22:23:23.812Z,23.23
2023-03-06T22:26:28.183Z,13.43
2023-03-06T22:29:30.962Z,18.65
2023-03-06T22:32:33.711Z,16.80
2023-03-06T22:35:36.367Z,15.13
2023-03-06T22:38:41.205Z,11.85
2023-03-06T22:41:43.772Z,15.88
2023-03-06T22:44:46.491Z,19.17
2023-03-06T22:47:49.019Z,21.63
2023-03-06T22:50:51.574Z,21.38
2023-03-06T22:53:54.295Z,22.23
2023-03-06T22:56:56.900Z,18.55
2023-03-06T22:59:59.469Z,19.17
2023-03-06T23:03:02.302Z,21.33
2023-03-06T23:06:09.859Z,18.85
2023-03-06T23:09:21.555Z,23.95
2023-03-06T23:12:44.156Z,22.83
2023-03-06T23:16:07.234Z,18.02
2023-03-06T23:19:28.982Z,21.27
2023-03-06T23:22:50.294Z,23.75
2023-03-06T23:26:13.979Z,27.37
2023-03-06T23:29:16.624Z,27.27
2023-03-06T23:32:19.341Z,28.65
2023-03-06T23:35:22.159Z,29.17
2023-03-06T23:38:24.747Z,26.25
2023-03-06T23:41:27.330Z,25.52
2023-03-06T23:44:29.994Z,27.25
2023-03-06T23:47:34.152Z,21.85
2023-03-06T23:50:39.749Z,23.42
2023-03-06T23:53:43.989Z,18.20
2023-03-06T23:56:46.575Z,20.43
2023-03-06T23:59:49.190Z,16.65
